createdAt,value
2022-08-26T00:01:54.062Z,8.35
2022-08-26T00:04:23.561Z,8.13
2022-08-26T00:06:51.091Z,8.52
2022-08-26T00:09:18.405Z,8.18
2022-08-26T00:11:46.391Z,8.30
2022-08-26T00:14:15.768Z,9.15
2022-08-26T00:16:48.161Z,8.60
2022-08-26T00:19:17.923Z,8.50
2022-08-26T00:21:46.278Z,8.30
2022-08-26T00:24:16.531Z,8.05
2022-08-26T00:26:44.759Z,9.18
2022-08-26T00:29:12.272Z,8.65
2022-08-26T00:31:40.514Z,8.70
2022-08-26T00:34:09.516Z,8.77
2022-08-26T00:39:06.982Z,8.25
2022-08-26T00:41:35.175Z,8.00
2022-08-26T00:44:02.728Z,8.80
2022-08-26T00:46:34.160Z,8.27
2022-08-26T00:49:28.142Z,7.97
2022-08-26T00:51:58.323Z,8.55
2022-08-26T00:54:31.016Z,8.68
2022-08-26T00:57:01.893Z,8.60
2022-08-26T00:59:32.771Z,8.50
2022-08-26T01:02:00.776Z,9.45
2022-08-26T01:04:31.617Z,8.45
2022-08-26T01:09:27.472Z,8.73
2022-08-26T01:11:59.138Z,9.00
2022-08-26T01:14:29.592Z,7.95
2022-08-26T01:16:56.814Z,8.55
2022-08-26T01:19:32.105Z,7.95
2022-08-26T01:22:02.709Z,8.57
2022-08-26T01:24:31.359Z,8.73
2022-08-26T01:27:02.455Z,8.80
2022-08-26T01:29:31.304Z,8.07
2022-08-26T01:31:58.800Z,8.75
2022-08-26T01:34:32.160Z,8.75
2022-08-26T01:37:05.386Z,8.55
2022-08-26T01:39:33.874Z,8.23
2022-08-26T01:42:03.133Z,8.18
2022-08-26T01:44:44.988Z,7.78
2022-08-26T01:47:13.735Z,8.95
2022-08-26T01:49:42.505Z,8.95
2022-08-26T01:52:10.933Z,8.70
2022-08-26T01:54:40.111Z,8.77
2022-08-26T01:57:07.924Z,7.43
2022-08-26T01:59:35.442Z,8.15
2022-08-26T02:02:02.915Z,8.68
2022-08-26T02:04:34.730Z,8.93
2022-08-26T02:07:05.200Z,7.95
2022-08-26T02:09:33.196Z,8.80
2022-08-26T02:12:09.419Z,8.10
2022-08-26T02:14:43.873Z,8.32
2022-08-26T02:17:33.030Z,9.00
2022-08-26T02:20:00.376Z,9.88
2022-08-26T02:22:29.315Z,8.85
2022-08-26T02:27:35.043Z,8.13
2022-08-26T02:30:12.201Z,9.25
2022-08-26T02:32:41.332Z,7.88
2022-08-26T02:35:10.874Z,7.93
2022-08-26T02:37:38.781Z,8.80
2022-08-26T02:40:11.565Z,8.25
2022-08-26T02:42:39.079Z,7.55
2022-08-26T02:45:07.387Z,8.85
2022-08-26T02:47:34.940Z,9.05
2022-08-26T02:50:02.130Z,8.38
2022-08-26T02:52:29.389Z,8.65
2022-08-26T02:54:56.709Z,8.30
2022-08-26T02:57:24.210Z,8.40
2022-08-26T02:59:51.571Z,8.45
2022-08-26T03:02:19.021Z,8.55
2022-08-26T03:04:58.183Z,8.07
2022-08-26T03:07:29.267Z,8.30
2022-08-26T03:09:57.447Z,9.25
2022-08-26T03:12:25.679Z,8.27
2022-08-26T03:14:53.276Z,8.70
2022-08-26T03:17:21.029Z,8.35
2022-08-26T03:19:51.776Z,9.43
2022-08-26T03:22:21.529Z,9.27
2022-08-26T03:24:50.092Z,9.80
2022-08-26T03:27:17.416Z,8.95
2022-08-26T03:30:03.268Z,8.98
2022-08-26T03:32:30.622Z,8.70
2022-08-26T03:34:58.235Z,7.85
2022-08-26T03:37:25.498Z,9.05
2022-08-26T03:39:53.179Z,7.95
2022-08-26T03:42:22.093Z,8.38
2022-08-26T03:44:49.697Z,8.60
2022-08-26T03:47:17.340Z,8.77
2022-08-26T03:49:44.557Z,8.57
2022-08-26T03:52:12.456Z,9.10
2022-08-26T03:54:40.917Z,9.60
2022-08-26T03:57:10.688Z,8.95
2022-08-26T03:59:37.911Z,9.38
2022-08-26T04:02:11.668Z,8.82
2022-08-26T04:04:39.203Z,9.25
2022-08-26T04:07:06.424Z,9.65
2022-08-26T04:09:35.278Z,9.07
2022-08-26T04:14:32.551Z,8.90
2022-08-26T04:16:59.765Z,9.05
2022-08-26T04:19:26.984Z,8.20
2022-08-26T04:21:54.338Z,8.98
2022-08-26T04:24:23.681Z,9.05
2022-08-26T04:26:51.048Z,9.68
2022-08-26T04:29:26.732Z,9.52
2022-08-26T04:31:55.916Z,9.02
2022-08-26T04:34:24.506Z,9.32
2022-08-26T04:36:54.728Z,9.70
2022-08-26T04:39:21.938Z,9.70
2022-08-26T04:41:50.516Z,9.48
2022-08-26T04:44:18.916Z,9.25
2022-08-26T04:46:46.174Z,9.48
2022-08-26T04:49:14.226Z,8.73
2022-08-26T04:51:41.481Z,9.23
2022-08-26T04:54:11.733Z,9.85
2022-08-26T04:56:41.357Z,9.32
2022-08-26T04:59:16.752Z,10.52
2022-08-26T05:01:51.690Z,9.38
2022-08-26T05:04:20.924Z,9.20
2022-08-26T05:06:49.029Z,8.55
2022-08-26T05:09:18.772Z,9.13
2022-08-26T05:11:51.933Z,8.80
2022-08-26T05:14:20.624Z,9.60
2022-08-26T05:16:49.328Z,9.00
2022-08-26T05:19:18.965Z,9.77
2022-08-26T05:21:47.739Z,10.68
2022-08-26T05:24:15.803Z,9.25
2022-08-26T05:26:44.552Z,10.35
2022-08-26T05:31:39.523Z,9.70
2022-08-26T05:34:08.468Z,9.52
2022-08-26T05:36:36.304Z,9.15
2022-08-26T05:39:10.862Z,9.48
2022-08-26T05:41:41.177Z,10.00
2022-08-26T05:44:10.692Z,9.75
2022-08-26T05:46:38.844Z,9.43
2022-08-26T05:49:12.827Z,9.70
2022-08-26T05:51:41.675Z,9.20
2022-08-26T05:56:38.965Z,10.40
2022-08-26T05:59:10.931Z,9.40
2022-08-26T06:01:43.109Z,10.10
2022-08-26T06:04:10.984Z,9.32
2022-08-26T06:06:41.347Z,9.93
2022-08-26T06:09:11.133Z,9.57
2022-08-26T06:11:38.892Z,9.85
2022-08-26T06:14:08.002Z,9.13
2022-08-26T06:16:40.830Z,9.93
2022-08-26T06:19:10.688Z,9.25
2022-08-26T06:21:40.177Z,8.85
2022-08-26T06:26:57.285Z,9.40
2022-08-26T06:29:25.963Z,9.13
2022-08-26T06:31:54.581Z,8.60
2022-08-26T06:34:23.848Z,9.50
2022-08-26T06:36:58.776Z,8.30
2022-08-26T06:39:26.183Z,9.38
2022-08-26T06:41:53.520Z,8.60
2022-08-26T06:46:50.254Z,8.77
2022-08-26T06:49:27.198Z,8.38
2022-08-26T06:51:59.901Z,7.85
2022-08-26T06:57:34.865Z,8.88
2022-08-26T07:00:11.876Z,7.57
2022-08-26T07:02:46.989Z,7.70
2022-08-26T07:05:14.786Z,8.13
2022-08-26T07:07:42.133Z,7.13
2022-08-26T07:10:10.479Z,7.15
2022-08-26T07:12:37.824Z,7.57
2022-08-26T07:15:05.521Z,7.55
2022-08-26T07:17:35.171Z,7.75
2022-08-26T07:20:03.661Z,7.87
2022-08-26T07:22:32.157Z,7.07
2022-08-26T07:24:59.463Z,7.22
2022-08-26T07:27:27.462Z,8.35
2022-08-26T07:29:58.729Z,7.22
2022-08-26T07:32:26.025Z,7.13
2022-08-26T07:34:53.360Z,7.63
2022-08-26T07:37:20.845Z,8.00
2022-08-26T07:39:48.271Z,7.88
2022-08-26T07:42:18.441Z,6.57
2022-08-26T07:44:45.865Z,6.53
2022-08-26T07:47:25.774Z,6.97
2022-08-26T07:49:56.067Z,7.72
2022-08-26T07:52:26.572Z,6.38
2022-08-26T07:54:58.112Z,8.02
2022-08-26T07:57:26.311Z,6.85
2022-08-26T07:59:55.167Z,7.45
2022-08-26T08:02:23.863Z,7.75
2022-08-26T08:04:51.808Z,6.38
2022-08-26T08:07:19.386Z,6.95
2022-08-26T08:09:49.597Z,7.53
2022-08-26T08:12:17.914Z,6.68
2022-08-26T08:14:47.117Z,6.28
2022-08-26T08:17:16.028Z,7.25
2022-08-26T08:19:44.711Z,6.82
2022-08-26T08:24:49.777Z,6.40
2022-08-26T08:27:22.796Z,6.95
2022-08-26T08:29:54.186Z,6.22
2022-08-26T08:32:23.513Z,6.75
2022-08-26T08:34:51.352Z,7.00
2022-08-26T08:37:18.887Z,6.30
2022-08-26T08:39:46.191Z,6.88
2022-08-26T08:42:43.870Z,6.43
2022-08-26T08:45:20.512Z,6.72
2022-08-26T08:47:51.831Z,6.53
2022-08-26T08:50:33.974Z,6.00
2022-08-26T08:53:21.999Z,6.85
2022-08-26T08:58:53.516Z,6.43
2022-08-26T09:01:37.634Z,7.32
2022-08-26T09:04:20.275Z,6.32
2022-08-26T09:06:48.915Z,6.38
2022-08-26T09:11:46.188Z,6.93
2022-08-26T09:14:13.401Z,5.13
2022-08-26T09:16:51.803Z,6.38
2022-08-26T09:21:58.650Z,5.78
2022-08-26T09:24:28.604Z,5.85
2022-08-26T09:26:58.277Z,6.00
2022-08-26T09:29:31.359Z,6.35
2022-08-26T09:32:24.065Z,6.10
2022-08-26T09:35:09.495Z,6.60
2022-08-26T09:40:34.910Z,5.95
2022-08-26T09:43:16.671Z,5.97
2022-08-26T09:45:59.156Z,6.63
2022-08-26T09:48:30.849Z,6.18
2022-08-26T09:51:04.140Z,6.35
2022-08-26T09:53:37.040Z,6.70
2022-08-26T09:56:29.830Z,7.30
2022-08-26T09:58:58.177Z,6.53
2022-08-26T10:01:36.098Z,6.20
2022-08-26T10:04:15.389Z,6.47
2022-08-26T10:07:07.474Z,7.55
2022-08-26T10:09:39.527Z,5.85
2022-08-26T10:12:19.541Z,6.93
2022-08-26T10:14:53.014Z,7.90
2022-08-26T10:17:32.497Z,7.53
2022-08-26T10:20:22.555Z,7.20
2022-08-26T10:23:02.294Z,8.40
2022-08-26T10:25:35.990Z,6.65
2022-08-26T10:28:27.455Z,7.20
2022-08-26T10:31:05.364Z,6.32
2022-08-26T10:33:32.971Z,7.85
2022-08-26T10:36:06.232Z,6.75
2022-08-26T10:38:36.354Z,6.43
2022-08-26T10:41:10.725Z,6.97
2022-08-26T10:43:51.796Z,5.88
2022-08-26T10:46:27.588Z,6.03
2022-08-26T10:49:00.127Z,6.72
2022-08-26T10:51:35.649Z,6.47
2022-08-26T10:54:13.693Z,5.40
2022-08-26T10:57:10.559Z,6.37
2022-08-26T11:03:34.534Z,5.68
2022-08-26T11:06:31.783Z,5.90
2022-08-26T11:09:07.827Z,5.15
2022-08-26T11:11:42.592Z,5.30
2022-08-26T11:14:53.263Z,5.85
2022-08-26T11:17:44.462Z,5.25
2022-08-26T11:20:30.089Z,4.70
2022-08-26T11:23:13.328Z,5.35
2022-08-26T11:25:59.738Z,3.72
2022-08-26T11:28:50.087Z,3.47
2022-08-26T11:31:30.494Z,3.58
2022-08-26T11:34:01.186Z,3.25
2022-08-26T11:36:49.158Z,3.85
2022-08-26T11:39:55.145Z,3.72
2022-08-26T11:42:32.037Z,3.63
2022-08-26T11:45:03.538Z,3.67
2022-08-26T11:47:33.243Z,3.60
2022-08-26T11:50:27.513Z,3.88
2022-08-26T11:53:04.584Z,4.70
2022-08-26T11:55:36.305Z,4.50
2022-08-26T11:58:05.841Z,4.15
2022-08-26T12:00:45.610Z,4.97
2022-08-26T12:03:23.169Z,4.40
2022-08-26T12:05:52.641Z,4.75
2022-08-26T12:08:24.855Z,5.35
2022-08-26T12:11:10.094Z,4.25
2022-08-26T12:13:39.211Z,4.85
2022-08-26T12:16:06.952Z,5.10
2022-08-26T12:18:38.041Z,4.80
2022-08-26T12:21:14.417Z,5.18
2022-08-26T12:23:47.044Z,4.50
2022-08-26T12:26:27.674Z,5.60
2022-08-26T12:29:26.529Z,10.32
2022-08-26T12:32:13.528Z,11.00
2022-08-26T12:34:42.539Z,9.57
2022-08-26T12:37:12.132Z,13.75
2022-08-26T12:39:42.368Z,13.13
2022-08-26T12:42:15.798Z,15.57
2022-08-26T12:44:53.816Z,15.60
2022-08-26T12:47:42.678Z,15.27
2022-08-26T12:50:27.406Z,16.02
2022-08-26T12:53:02.319Z,18.33
2022-08-26T12:55:32.431Z,17.50
2022-08-26T12:58:29.931Z,18.80
2022-08-26T13:01:19.495Z,17.67
2022-08-26T13:03:47.592Z,17.15
2022-08-26T13:06:31.615Z,16.58
2022-08-26T13:09:08.020Z,14.75
2022-08-26T13:11:58.762Z,15.95
2022-08-26T13:14:26.304Z,10.85
2022-08-26T13:16:53.953Z,9.35
2022-08-26T13:19:25.861Z,9.93
2022-08-26T13:21:57.788Z,9.52
2022-08-26T13:24:44.740Z,9.15
2022-08-26T13:27:14.548Z,7.45
2022-08-26T13:29:41.848Z,7.85
2022-08-26T13:32:09.571Z,7.55
2022-08-26T13:34:37.965Z,7.47
2022-08-26T13:37:05.618Z,5.75
2022-08-26T13:39:33.183Z,6.13
2022-08-26T13:42:00.589Z,6.72
2022-08-26T13:44:29.446Z,7.65
2022-08-26T13:46:56.717Z,8.88
2022-08-26T13:49:23.974Z,8.93
2022-08-26T13:51:51.383Z,8.65
2022-08-26T13:54:19.933Z,9.48
2022-08-26T13:56:47.230Z,9.35
2022-08-26T13:59:14.461Z,9.93
2022-08-26T14:01:41.773Z,12.25
2022-08-26T14:04:09.397Z,12.38
2022-08-26T14:06:37.385Z,11.27
2022-08-26T14:09:05.052Z,12.90
2022-08-26T14:11:45.026Z,12.50
2022-08-26T14:14:19.871Z,12.43
2022-08-26T14:16:58.946Z,15.10
2022-08-26T14:19:27.937Z,13.70
2022-08-26T14:21:55.221Z,14.80
2022-08-26T14:24:22.443Z,18.48
2022-08-26T14:26:49.926Z,18.85
2022-08-26T14:29:17.230Z,14.93
2022-08-26T14:31:45.071Z,14.27
2022-08-26T14:34:13.402Z,15.23
2022-08-26T14:36:40.657Z,15.77
2022-08-26T14:39:10.519Z,16.70
2022-08-26T14:41:54.062Z,16.65
2022-08-26T14:44:26.785Z,16.70
2022-08-26T14:46:54.562Z,16.60
2022-08-26T14:49:23.484Z,17.50
2022-08-26T14:51:50.964Z,18.08
2022-08-26T14:54:18.992Z,17.30
2022-08-26T14:56:57.536Z,16.80
2022-08-26T14:59:30.267Z,14.73
2022-08-26T15:01:59.096Z,16.50
2022-08-26T15:04:26.486Z,18.63
2022-08-26T15:06:54.878Z,19.45
2022-08-26T15:09:23.129Z,19.05
2022-08-26T15:11:50.908Z,20.47
2022-08-26T15:14:19.562Z,21.95
2022-08-26T15:19:16.240Z,17.83
2022-08-26T15:21:45.257Z,16.23
2022-08-26T15:24:13.472Z,16.13
2022-08-26T15:26:41.764Z,14.95
2022-08-26T15:29:09.301Z,15.03
2022-08-26T15:31:36.979Z,13.82
2022-08-26T15:34:07.036Z,12.23
2022-08-26T15:36:35.563Z,11.70
2022-08-26T15:39:02.875Z,12.05
2022-08-26T15:41:30.148Z,13.27
2022-08-26T15:44:03.411Z,14.00
2022-08-26T15:46:31.680Z,11.18
2022-08-26T15:48:59.119Z,10.75
2022-08-26T15:51:31.806Z,10.57
2022-08-26T15:53:59.792Z,10.25
2022-08-26T15:56:29.470Z,9.85
2022-08-26T15:58:57.731Z,10.07
2022-08-26T16:01:27.539Z,10.63
2022-08-26T16:03:55.782Z,10.27
2022-08-26T16:06:27.495Z,8.50
2022-08-26T16:08:57.263Z,9.85
2022-08-26T16:11:25.695Z,10.13
2022-08-26T16:13:53.142Z,9.40
2022-08-26T16:16:22.245Z,10.10
2022-08-26T16:18:52.760Z,9.75
2022-08-26T16:21:28.064Z,10.02
2022-08-26T16:23:57.680Z,11.20
2022-08-26T16:26:28.056Z,10.25
2022-08-26T16:28:58.348Z,10.85
2022-08-26T16:31:25.947Z,10.90
2022-08-26T16:33:53.206Z,11.23
2022-08-26T16:36:20.754Z,10.85
2022-08-26T16:38:56.699Z,11.75
2022-08-26T16:41:29.232Z,11.40
2022-08-26T16:43:57.625Z,12.60
2022-08-26T16:46:26.244Z,12.05
2022-08-26T16:48:56.616Z,12.68
2022-08-26T16:51:27.386Z,12.23
2022-08-26T16:53:56.272Z,12.52
2022-08-26T16:56:27.732Z,11.68
2022-08-26T16:59:02.183Z,12.05
2022-08-26T17:01:29.736Z,12.15
2022-08-26T17:03:57.670Z,11.52
2022-08-26T17:06:24.977Z,12.43
2022-08-26T17:08:53.145Z,11.85
2022-08-26T17:11:20.428Z,12.53
2022-08-26T17:13:47.961Z,11.48
2022-08-26T17:16:15.605Z,11.93
2022-08-26T17:18:42.973Z,11.75
2022-08-26T17:21:12.627Z,12.32
2022-08-26T17:23:41.032Z,12.50
2022-08-26T17:26:09.154Z,13.55
2022-08-26T17:28:36.958Z,11.93
2022-08-26T17:31:04.989Z,12.43
2022-08-26T17:33:33.037Z,11.60
2022-08-26T17:36:00.910Z,12.00
2022-08-26T17:38:29.181Z,10.80
2022-08-26T17:40:57.459Z,12.43
2022-08-26T17:43:26.845Z,13.80
2022-08-26T17:46:06.691Z,12.75
2022-08-26T17:48:35.330Z,13.13
2022-08-26T17:51:10.570Z,11.95
2022-08-26T17:53:37.957Z,12.55
2022-08-26T17:56:09.686Z,12.77
2022-08-26T17:58:37.883Z,12.02
2022-08-26T18:01:06.205Z,11.50
2022-08-26T18:03:33.849Z,10.27
2022-08-26T18:06:01.267Z,11.40
2022-08-26T18:08:28.754Z,11.30
2022-08-26T18:10:56.169Z,12.13
2022-08-26T18:13:23.518Z,12.38
2022-08-26T18:15:50.926Z,12.52
2022-08-26T18:18:18.278Z,12.73
2022-08-26T18:20:45.969Z,11.38
2022-08-26T18:23:20.149Z,11.85
2022-08-26T18:25:47.727Z,11.98
2022-08-26T18:30:57.544Z,11.60
2022-08-26T18:33:25.005Z,12.07
2022-08-26T18:35:52.799Z,10.93
2022-08-26T18:38:20.047Z,10.68
2022-08-26T18:40:49.718Z,10.90
2022-08-26T18:43:16.965Z,10.90
2022-08-26T18:45:44.224Z,10.70
2022-08-26T18:48:11.739Z,11.00
2022-08-26T18:50:40.395Z,10.70
2022-08-26T18:53:08.357Z,11.43
2022-08-26T18:55:35.678Z,10.80
2022-08-26T18:58:03.038Z,10.10
2022-08-26T19:00:31.561Z,10.88
2022-08-26T19:02:58.920Z,10.38
2022-08-26T19:07:56.547Z,10.15
2022-08-26T19:10:24.779Z,9.70
2022-08-26T19:12:53.736Z,10.33
2022-08-26T19:15:22.694Z,10.82
2022-08-26T19:17:50.270Z,11.20
2022-08-26T19:20:17.534Z,10.65
2022-08-26T19:22:46.006Z,10.55
2022-08-26T19:25:13.657Z,10.63
2022-08-26T19:27:41.330Z,10.52
2022-08-26T19:30:09.882Z,9.52
2022-08-26T19:32:37.163Z,9.98
2022-08-26T19:35:05.978Z,9.85
2022-08-26T19:37:33.226Z,9.63
2022-08-26T19:40:00.571Z,10.57
2022-08-26T19:42:27.980Z,10.32
2022-08-26T19:45:18.261Z,9.65
2022-08-26T19:47:53.629Z,10.02
2022-08-26T19:50:21.998Z,10.83
2022-08-26T19:52:49.374Z,10.85
2022-08-26T19:55:18.716Z,10.57
2022-08-26T19:57:46.014Z,10.30
2022-08-26T20:00:15.991Z,9.82
2022-08-26T20:02:44.284Z,10.50
2022-08-26T20:05:13.423Z,8.90
2022-08-26T20:07:41.322Z,9.00
2022-08-26T20:10:12.405Z,9.90
2022-08-26T20:12:41.602Z,8.80
2022-08-26T20:15:10.637Z,9.65
2022-08-26T20:20:26.967Z,9.57
2022-08-26T20:23:01.713Z,10.05
2022-08-26T20:25:29.104Z,9.07
2022-08-26T20:27:56.400Z,9.38
2022-08-26T20:30:23.779Z,10.00
2022-08-26T20:32:51.340Z,9.82
2022-08-26T20:35:18.728Z,9.77
2022-08-26T20:40:27.257Z,10.00
2022-08-26T20:42:54.578Z,10.27
2022-08-26T20:45:22.239Z,10.52
2022-08-26T20:47:49.459Z,11.20
2022-08-26T20:50:16.668Z,10.90
2022-08-26T20:52:43.957Z,10.07
2022-08-26T20:55:13.167Z,10.50
2022-08-26T20:57:43.264Z,11.20
2022-08-26T21:00:13.408Z,11.63
2022-08-26T21:02:41.405Z,11.25
2022-08-26T21:05:09.175Z,10.40
2022-08-26T21:07:36.439Z,11.27
2022-08-26T21:10:04.933Z,12.15
2022-08-26T21:12:32.264Z,12.05
2022-08-26T21:14:59.504Z,11.27
2022-08-26T21:17:26.948Z,11.90
2022-08-26T21:19:54.354Z,10.50
2022-08-26T21:22:21.752Z,12.20
2022-08-26T21:24:49.096Z,11.93
2022-08-26T21:27:17.640Z,10.85
2022-08-26T21:29:53.554Z,12.02
2022-08-26T21:32:20.799Z,10.70
2022-08-26T21:34:48.527Z,11.35
2022-08-26T21:37:16.562Z,10.63
2022-08-26T21:39:44.406Z,10.93
2022-08-26T21:42:13.090Z,11.82
2022-08-26T21:44:40.664Z,12.05
2022-08-26T21:47:08.087Z,11.98
2022-08-26T21:49:36.228Z,12.07
2022-08-26T21:52:04.544Z,11.20
2022-08-26T21:54:33.870Z,11.43
2022-08-26T21:57:01.131Z,12.20
2022-08-26T21:59:28.377Z,13.23
2022-08-26T22:01:56.170Z,14.00
2022-08-26T22:04:23.449Z,14.32
2022-08-26T22:06:53.674Z,13.52
2022-08-26T22:09:26.277Z,12.80
2022-08-26T22:11:54.163Z,13.77
2022-08-26T22:14:25.395Z,13.85
2022-08-26T22:16:58.353Z,12.93
2022-08-26T22:19:25.653Z,12.80
2022-08-26T22:21:54.557Z,13.70
2022-08-26T22:24:23.697Z,12.88
2022-08-26T22:29:18.799Z,13.68
2022-08-26T22:31:48.892Z,12.10
2022-08-26T22:34:19.476Z,13.20
2022-08-26T22:36:48.205Z,14.63
2022-08-26T22:39:18.728Z,14.25
2022-08-26T22:41:48.777Z,14.45
2022-08-26T22:44:17.716Z,13.73
2022-08-26T22:46:45.550Z,15.48
2022-08-26T22:49:16.295Z,16.83
2022-08-26T22:51:44.417Z,16.95
2022-08-26T22:54:12.089Z,17.75
2022-08-26T22:56:39.601Z,19.35
2022-08-26T22:59:08.058Z,20.60
2022-08-26T23:01:37.318Z,20.95
2022-08-26T23:04:06.307Z,19.92
2022-08-26T23:06:36.579Z,21.83
2022-08-26T23:09:05.193Z,22.17
2022-08-26T23:11:32.809Z,23.25
2022-08-26T23:14:01.477Z,24.17
2022-08-26T23:16:39.142Z,24.00
2022-08-26T23:19:10.841Z,23.70
2022-08-26T23:21:38.636Z,24.67
2022-08-26T23:24:07.298Z,24.88
2022-08-26T23:26:35.738Z,21.90
2022-08-26T23:29:06.366Z,22.45
2022-08-26T23:31:34.263Z,21.02
2022-08-26T23:34:20.070Z,22.23
2022-08-26T23:36:47.757Z,20.73
2022-08-26T23:39:15.213Z,22.10
2022-08-26T23:41:42.530Z,21.58
2022-08-26T23:44:09.831Z,20.50
2022-08-26T23:46:37.126Z,20.52
2022-08-26T23:49:04.985Z,19.48
2022-08-26T23:51:51.019Z,19.92
2022-08-26T23:54:19.529Z,18.15
2022-08-26T23:56:47.048Z,18.70
2022-08-26T23:59:15.595Z,19.40
